Terminal Aerodrome Forecast
Issued by NWS Lake Charles, LA

Home | Current Version | Previous Version | Text Only | Print | Product List | Glossary On
Versions: 1 2 3 4 5 6 7 8 9 10 11 12 13 14 15 16 17 18
000
FTUS44 KLCH 232300
TAFLCH
TAF
KLCH 232330Z 2400/2424 VRB03KT P6SM BKN045
     FM240100 VRB03KT P6SM SCT050
     FM240600 VRB03KT P6SM VCTS BKN045CB
     FM240800 34005KT P6SM SCT050
     FM241100 VRB03KT 5SM BR SCT030
     FM241400 34003KT P6SM SCT035
     FM241800 VRB04KT P6SM VCTS SCT035CB SCT070=

USA.gov is the U.S. government's official web portal to all federal, state and local government web resources and services.